createdAt,value
2022-08-03T00:01:32.714Z,2.60
2022-08-03T00:04:00.123Z,2.79
2022-08-03T00:06:31.687Z,2.74
2022-08-03T00:09:08.871Z,2.70
2022-08-03T00:11:36.325Z,2.74
2022-08-03T00:14:07.397Z,2.93
2022-08-03T00:16:34.364Z,2.51
2022-08-03T00:19:02.297Z,2.54
2022-08-03T00:21:28.929Z,2.77
2022-08-03T00:23:55.737Z,2.89
2022-08-03T00:26:22.545Z,2.64
2022-08-03T00:28:52.958Z,2.67
2022-08-03T00:31:51.571Z,2.81
2022-08-03T00:34:15.854Z,2.62
2022-08-03T00:36:42.899Z,2.47
2022-08-03T00:39:13.407Z,2.72
2022-08-03T00:41:47.370Z,2.80
2022-08-03T00:44:14.744Z,2.82
2022-08-03T00:46:43.667Z,2.55
2022-08-03T00:49:10.578Z,2.67
2022-08-03T00:51:37.133Z,2.75
2022-08-03T00:54:06.144Z,2.55
2022-08-03T00:56:39.852Z,2.83
2022-08-03T00:59:26.490Z,2.60
2022-08-03T01:02:00.518Z,2.74
2022-08-03T01:04:27.385Z,2.83
2022-08-03T01:06:53.910Z,2.73
2022-08-03T01:09:20.504Z,2.75
2022-08-03T01:12:00.188Z,2.58
2022-08-03T01:14:28.562Z,2.81
2022-08-03T01:16:55.108Z,2.90
2022-08-03T01:19:21.960Z,2.98
2022-08-03T01:21:48.721Z,3.16
2022-08-03T01:24:16.338Z,2.60
2022-08-03T01:26:43.832Z,2.88
2022-08-03T01:29:11.165Z,2.83
2022-08-03T01:32:53.268Z,2.93
2022-08-03T01:34:25.349Z,2.84
2022-08-03T01:36:52.059Z,2.93
2022-08-03T01:39:20.510Z,2.87
2022-08-03T01:41:47.426Z,2.93
2022-08-03T01:44:29.602Z,3.02
2022-08-03T01:47:01.051Z,2.81
2022-08-03T01:49:27.722Z,2.65
2022-08-03T01:52:03.860Z,2.79
2022-08-03T01:54:31.937Z,2.82
2022-08-03T01:56:58.852Z,2.86
2022-08-03T01:59:25.714Z,2.90
2022-08-03T02:02:28.361Z,2.74
2022-08-03T02:04:43.578Z,2.80
2022-08-03T02:07:10.477Z,2.74
2022-08-03T02:09:37.033Z,3.02
2022-08-03T02:12:04.381Z,2.92
2022-08-03T02:14:30.954Z,2.81
2022-08-03T02:16:58.529Z,2.87
2022-08-03T02:19:25.472Z,2.95
2022-08-03T02:21:56.949Z,3.03
2022-08-03T02:24:27.828Z,2.94
2022-08-03T02:26:54.483Z,3.00
2022-08-03T02:29:21.421Z,2.95
2022-08-03T02:32:07.717Z,2.81
2022-08-03T02:34:36.841Z,2.71
2022-08-03T02:37:03.448Z,2.95
2022-08-03T02:39:31.419Z,3.04
2022-08-03T02:41:58.732Z,2.93
2022-08-03T02:44:25.618Z,2.71
2022-08-03T02:46:52.217Z,2.92
2022-08-03T02:49:42.709Z,2.80
2022-08-03T02:52:06.315Z,2.90
2022-08-03T02:54:40.046Z,2.97
2022-08-03T02:57:07.511Z,2.81
2022-08-03T02:59:34.362Z,2.90
2022-08-03T03:02:03.037Z,2.79
2022-08-03T03:04:33.800Z,2.98
2022-08-03T03:07:01.825Z,3.06
2022-08-03T03:09:40.120Z,3.06
2022-08-03T03:12:07.282Z,2.97
2022-08-03T03:14:34.252Z,3.11
2022-08-03T03:17:00.826Z,3.00
2022-08-03T03:19:28.409Z,3.37
2022-08-03T03:21:55.077Z,2.91
2022-08-03T03:24:21.633Z,2.96
2022-08-03T03:26:48.195Z,3.05
2022-08-03T03:29:18.459Z,3.10
2022-08-03T03:31:45.726Z,3.08
2022-08-03T03:34:12.695Z,2.90
2022-08-03T03:36:39.437Z,2.85
2022-08-03T03:39:15.676Z,3.26
2022-08-03T03:41:46.708Z,3.32
2022-08-03T03:44:16.252Z,3.31
2022-08-03T03:46:43.232Z,2.94
2022-08-03T03:49:09.917Z,2.99
2022-08-03T03:51:38.753Z,2.87
2022-08-03T03:54:06.172Z,2.91
2022-08-03T03:56:33.052Z,2.70
2022-08-03T03:59:02.812Z,2.98
2022-08-03T04:01:30.206Z,2.80
2022-08-03T04:04:00.341Z,2.98
2022-08-03T04:06:27.222Z,2.96
2022-08-03T04:08:53.791Z,2.95
2022-08-03T04:11:20.687Z,2.93
2022-08-03T04:14:03.476Z,2.92
2022-08-03T04:16:30.365Z,2.99
2022-08-03T04:18:57.741Z,3.13
2022-08-03T04:21:24.417Z,2.91
2022-08-03T04:23:51.897Z,2.97
2022-08-03T04:26:19.462Z,2.99
2022-08-03T04:28:46.441Z,3.08
2022-08-03T04:31:13.363Z,3.04
2022-08-03T04:33:40.142Z,2.78
2022-08-03T04:36:06.859Z,2.86
2022-08-03T04:38:34.266Z,2.96
2022-08-03T04:41:00.926Z,3.02
2022-08-03T04:43:27.647Z,3.19
2022-08-03T04:45:54.468Z,2.99
2022-08-03T04:48:21.347Z,3.15
2022-08-03T04:50:48.138Z,3.18
2022-08-03T04:53:15.506Z,2.91
2022-08-03T04:55:42.305Z,3.07
2022-08-03T04:58:09.101Z,3.07
2022-08-03T05:00:35.982Z,3.18
2022-08-03T05:03:02.691Z,3.34
2022-08-03T05:05:34.616Z,3.08
2022-08-03T05:08:16.541Z,3.14
2022-08-03T05:10:59.112Z,3.35
2022-08-03T05:13:26.906Z,3.17
2022-08-03T05:15:55.507Z,3.10
2022-08-03T05:18:22.376Z,3.16
2022-08-03T05:20:48.936Z,3.28
2022-08-03T05:23:16.457Z,3.00
2022-08-03T05:25:49.773Z,2.95
2022-08-03T05:28:18.430Z,2.97
2022-08-03T05:30:49.010Z,2.79
2022-08-03T05:33:16.109Z,2.79
2022-08-03T05:36:01.593Z,2.91
2022-08-03T05:38:37.775Z,3.07
2022-08-03T05:41:21.431Z,2.91
2022-08-03T05:46:32.814Z,2.96
2022-08-03T05:48:59.581Z,2.70
2022-08-03T05:51:33.430Z,2.82
2022-08-03T05:54:01.347Z,2.67
2022-08-03T05:56:27.964Z,2.71
2022-08-03T05:58:56.743Z,2.77
2022-08-03T06:01:23.384Z,2.96
2022-08-03T06:03:49.956Z,2.94
2022-08-03T06:06:19.373Z,2.72
2022-08-03T06:08:45.942Z,2.90
2022-08-03T06:11:15.237Z,2.92
2022-08-03T06:13:42.221Z,2.90
2022-08-03T06:16:08.854Z,2.56
2022-08-03T06:18:35.554Z,2.45
2022-08-03T06:21:14.552Z,2.98
2022-08-03T06:23:54.212Z,2.67
2022-08-03T06:26:22.582Z,2.78
2022-08-03T06:28:52.264Z,3.02
2022-08-03T06:31:20.831Z,3.04
2022-08-03T06:33:48.353Z,2.74
2022-08-03T06:36:34.477Z,2.72
2022-08-03T06:39:02.030Z,3.16
2022-08-03T06:41:37.558Z,2.89
2022-08-03T06:44:05.329Z,2.75
2022-08-03T06:46:34.599Z,3.05
2022-08-03T06:49:02.118Z,2.83
2022-08-03T06:52:03.377Z,2.78
2022-08-03T06:54:19.372Z,2.97
2022-08-03T06:56:49.016Z,3.02
2022-08-03T07:00:08.644Z,3.12
2022-08-03T07:02:02.164Z,2.80
2022-08-03T07:04:29.119Z,2.91
2022-08-03T07:06:55.773Z,2.81
2022-08-03T07:09:22.597Z,2.93
2022-08-03T07:11:49.276Z,2.89
2022-08-03T07:14:15.991Z,3.14
2022-08-03T07:19:33.181Z,2.92
2022-08-03T07:22:02.077Z,2.95
2022-08-03T07:24:30.869Z,2.93
2022-08-03T07:26:57.591Z,2.69
2022-08-03T07:29:24.647Z,2.89
2022-08-03T07:31:51.235Z,2.78
2022-08-03T07:34:21.101Z,2.94
2022-08-03T07:36:48.148Z,2.93
2022-08-03T07:39:18.005Z,3.01
2022-08-03T07:41:44.906Z,2.84
2022-08-03T07:44:11.579Z,2.97
2022-08-03T07:46:39.892Z,3.07
2022-08-03T07:49:06.741Z,2.81
2022-08-03T07:51:33.756Z,3.05
2022-08-03T07:54:02.163Z,3.05
2022-08-03T07:56:29.014Z,3.06
2022-08-03T07:58:55.895Z,2.86
2022-08-03T08:01:22.749Z,2.92
2022-08-03T08:03:52.680Z,3.00
2022-08-03T08:06:20.020Z,3.06
2022-08-03T08:11:29.431Z,3.29
2022-08-03T08:13:56.783Z,2.98
2022-08-03T08:16:23.405Z,2.85
2022-08-03T08:18:50.022Z,3.10
2022-08-03T08:21:16.813Z,3.05
2022-08-03T08:23:47.092Z,3.18
2022-08-03T08:26:23.638Z,2.98
2022-08-03T08:28:50.476Z,3.07
2022-08-03T08:31:17.392Z,3.00
2022-08-03T08:36:31.365Z,3.26
2022-08-03T08:38:58.173Z,3.23
2022-08-03T08:41:24.789Z,2.90
2022-08-03T08:44:00.210Z,3.18
2022-08-03T08:46:27.200Z,3.02
2022-08-03T08:48:55.909Z,3.32
2022-08-03T08:51:25.138Z,3.21
2022-08-03T08:54:14.604Z,3.09
2022-08-03T08:56:41.518Z,3.04
2022-08-03T08:59:10.769Z,3.22
2022-08-03T09:01:38.474Z,3.30
2022-08-03T09:04:05.284Z,3.29
2022-08-03T09:06:32.930Z,3.19
2022-08-03T09:08:59.452Z,2.95
2022-08-03T09:11:53.345Z,3.07
2022-08-03T09:14:36.727Z,3.19
2022-08-03T09:17:03.177Z,3.07
2022-08-03T09:19:29.842Z,3.18
2022-08-03T09:22:00.153Z,3.46
2022-08-03T09:24:41.204Z,3.44
2022-08-03T09:27:13.301Z,3.46
2022-08-03T09:29:41.272Z,3.24
2022-08-03T09:32:08.215Z,3.07
2022-08-03T09:34:35.073Z,3.30
2022-08-03T09:37:01.843Z,3.04
2022-08-03T09:39:41.660Z,3.27
2022-08-03T09:42:14.695Z,3.38
2022-08-03T09:44:42.052Z,3.40
2022-08-03T09:47:08.672Z,3.08
2022-08-03T09:49:35.750Z,3.32
2022-08-03T09:54:43.425Z,3.34
2022-08-03T09:57:11.837Z,3.39
2022-08-03T09:59:41.072Z,3.48
2022-08-03T10:02:10.579Z,3.44
2022-08-03T10:04:37.465Z,3.02
2022-08-03T10:07:04.457Z,3.09
2022-08-03T10:09:31.855Z,3.45
2022-08-03T10:11:58.487Z,3.18
2022-08-03T10:14:26.014Z,3.32
2022-08-03T10:16:52.953Z,3.49
2022-08-03T10:21:59.972Z,3.43
2022-08-03T10:24:28.148Z,3.16
2022-08-03T10:26:56.589Z,3.32
2022-08-03T10:29:23.174Z,3.33
2022-08-03T10:31:55.875Z,2.98
2022-08-03T10:34:24.620Z,3.22
2022-08-03T10:36:51.258Z,3.09
2022-08-03T10:39:18.163Z,3.29
2022-08-03T10:41:45.565Z,3.12
2022-08-03T10:44:12.883Z,3.28
2022-08-03T10:46:44.499Z,2.86
2022-08-03T10:49:11.939Z,2.72
2022-08-03T10:51:39.226Z,2.90
2022-08-03T10:54:06.629Z,3.05
2022-08-03T10:56:49.906Z,3.20
2022-08-03T10:59:27.839Z,3.12
2022-08-03T11:01:58.904Z,2.94
2022-08-03T11:04:26.856Z,2.81
2022-08-03T11:06:54.138Z,2.78
2022-08-03T11:09:20.880Z,3.18
2022-08-03T11:11:49.305Z,3.30
2022-08-03T11:14:16.582Z,3.25
2022-08-03T11:16:43.535Z,3.05
2022-08-03T11:19:10.190Z,3.22
2022-08-03T11:21:38.789Z,3.17
2022-08-03T11:24:06.909Z,3.09
2022-08-03T11:26:33.689Z,2.83
2022-08-03T11:29:00.606Z,2.96
2022-08-03T11:34:17.556Z,3.06
2022-08-03T11:36:51.925Z,2.73
2022-08-03T11:39:28.622Z,2.73
2022-08-03T11:41:56.791Z,2.60
2022-08-03T11:44:24.391Z,2.68
2022-08-03T11:46:51.176Z,2.75
2022-08-03T11:49:17.930Z,2.64
2022-08-03T11:51:44.834Z,2.63
2022-08-03T11:54:11.370Z,2.70
2022-08-03T11:56:38.316Z,2.87
2022-08-03T11:59:19.964Z,2.69
2022-08-03T12:01:48.578Z,2.40
2022-08-03T12:04:15.281Z,2.54
2022-08-03T12:06:47.045Z,2.70
2022-08-03T12:09:15.576Z,2.44
2022-08-03T12:11:51.062Z,2.53
2022-08-03T12:14:50.840Z,2.77
2022-08-03T12:17:13.998Z,2.42
2022-08-03T12:19:41.009Z,2.74
2022-08-03T12:22:08.023Z,2.65
2022-08-03T12:24:34.710Z,2.70
2022-08-03T12:27:01.626Z,2.57
2022-08-03T12:29:29.326Z,2.51
2022-08-03T12:31:56.428Z,2.66
2022-08-03T12:34:25.054Z,2.78
2022-08-03T12:36:57.794Z,2.92
2022-08-03T12:39:24.692Z,2.77
2022-08-03T12:41:51.372Z,2.68
2022-08-03T12:44:18.190Z,2.67
2022-08-03T12:46:47.941Z,2.90
2022-08-03T12:49:18.519Z,2.41
2022-08-03T12:51:45.790Z,2.64
2022-08-03T12:54:12.691Z,2.48
2022-08-03T12:56:39.397Z,2.66
2022-08-03T12:59:06.100Z,2.70
2022-08-03T13:01:33.153Z,2.63
2022-08-03T13:04:00.167Z,2.67
2022-08-03T13:06:27.953Z,2.66
2022-08-03T13:08:54.841Z,2.58
2022-08-03T13:11:21.543Z,2.82
2022-08-03T13:13:48.331Z,3.47
2022-08-03T13:16:19.171Z,3.33
2022-08-03T13:18:46.319Z,2.78
2022-08-03T13:21:14.994Z,2.77
2022-08-03T13:23:41.701Z,2.58
2022-08-03T13:26:08.581Z,2.44
2022-08-03T13:28:35.492Z,2.44
2022-08-03T13:31:02.861Z,2.59
2022-08-03T13:33:30.614Z,2.43
2022-08-03T13:35:57.265Z,2.32
2022-08-03T13:38:26.910Z,2.54
2022-08-03T13:40:54.095Z,2.28
2022-08-03T13:43:21.091Z,2.32
2022-08-03T13:45:52.425Z,2.33
2022-08-03T13:48:37.349Z,2.19
2022-08-03T13:51:12.010Z,1.90
2022-08-03T13:53:49.109Z,1.94
2022-08-03T13:56:16.734Z,2.01
2022-08-03T13:58:43.379Z,2.07
2022-08-03T14:01:10.392Z,1.99
2022-08-03T14:03:37.074Z,2.28
2022-08-03T14:06:04.107Z,2.42
2022-08-03T14:08:30.675Z,2.14
2022-08-03T14:10:57.692Z,2.48
2022-08-03T14:13:24.276Z,2.44
2022-08-03T14:15:52.045Z,2.20
2022-08-03T14:18:29.307Z,2.33
2022-08-03T14:21:04.992Z,2.21
2022-08-03T14:23:32.934Z,2.07
2022-08-03T14:26:00.027Z,2.22
2022-08-03T14:28:26.675Z,2.18
2022-08-03T14:30:53.583Z,2.27
2022-08-03T14:33:20.551Z,2.29
2022-08-03T14:35:47.465Z,2.27
2022-08-03T14:38:14.105Z,2.25
2022-08-03T14:40:41.504Z,2.21
2022-08-03T14:43:08.174Z,2.18
2022-08-03T14:45:42.006Z,2.24
2022-08-03T14:50:29.293Z,2.29
2022-08-03T14:50:55.939Z,1.99
2022-08-03T14:53:22.559Z,1.79
2022-08-03T14:55:51.572Z,1.97
2022-08-03T14:58:21.174Z,1.97
2022-08-03T15:00:49.108Z,2.33
2022-08-03T15:03:16.736Z,2.25
2022-08-03T15:05:44.082Z,2.01
2022-08-03T15:08:11.036Z,1.81
2022-08-03T15:10:44.331Z,1.86
2022-08-03T15:13:12.543Z,2.11
2022-08-03T15:15:40.172Z,2.07
2022-08-03T15:18:07.533Z,2.11
2022-08-03T15:20:50.153Z,2.31
2022-08-03T15:23:18.505Z,1.93
2022-08-03T15:26:28.200Z,1.84
2022-08-03T15:28:32.137Z,1.93
2022-08-03T15:30:58.858Z,1.85
2022-08-03T15:33:26.302Z,1.95
2022-08-03T15:35:52.900Z,1.72
2022-08-03T15:38:19.629Z,1.76
2022-08-03T15:40:46.575Z,1.82
2022-08-03T15:43:15.624Z,2.02
2022-08-03T15:45:42.322Z,1.76
2022-08-03T15:48:09.202Z,1.92
2022-08-03T15:50:35.789Z,2.14
2022-08-03T15:53:07.351Z,1.76
2022-08-03T15:55:37.041Z,1.69
2022-08-03T15:59:04.172Z,1.91
2022-08-03T16:00:51.271Z,2.02
2022-08-03T16:03:17.969Z,1.87
2022-08-03T16:05:46.434Z,1.84
2022-08-03T16:08:13.945Z,1.82
2022-08-03T16:10:41.015Z,1.79
2022-08-03T16:13:08.000Z,1.77
2022-08-03T16:15:38.629Z,1.69
2022-08-03T16:18:05.708Z,1.89
2022-08-03T16:20:37.157Z,1.61
2022-08-03T16:23:10.565Z,1.67
2022-08-03T16:25:43.203Z,1.44
2022-08-03T16:28:14.220Z,1.48
2022-08-03T16:30:41.703Z,1.46
2022-08-03T16:33:08.287Z,1.72
2022-08-03T16:35:34.908Z,1.88
2022-08-03T16:38:04.386Z,1.53
2022-08-03T16:40:33.506Z,1.73
2022-08-03T16:43:07.341Z,1.63
2022-08-03T16:48:27.237Z,1.46
2022-08-03T16:51:01.179Z,1.54
2022-08-03T16:53:51.576Z,1.70
2022-08-03T16:56:15.400Z,1.80
2022-08-03T16:58:44.397Z,1.85
2022-08-03T17:01:22.098Z,1.50
2022-08-03T17:04:01.971Z,1.39
2022-08-03T17:06:34.464Z,2.16
2022-08-03T17:09:01.688Z,2.31
2022-08-03T17:11:30.140Z,2.07
2022-08-03T17:13:59.905Z,2.07
2022-08-03T17:16:28.810Z,1.96
2022-08-03T17:18:55.999Z,1.80
2022-08-03T17:21:22.967Z,1.82
2022-08-03T17:23:50.435Z,1.73
2022-08-03T17:26:21.553Z,1.89
2022-08-03T17:28:57.333Z,1.78
2022-08-03T17:31:31.312Z,1.85
2022-08-03T17:34:04.608Z,1.74
2022-08-03T17:37:02.101Z,1.95
2022-08-03T17:39:48.471Z,2.18
2022-08-03T17:42:31.367Z,3.21
2022-08-03T17:44:58.802Z,2.11
2022-08-03T17:47:42.459Z,2.02
2022-08-03T17:50:24.149Z,1.95
2022-08-03T17:52:52.758Z,2.01
2022-08-03T17:55:57.480Z,2.06
2022-08-03T17:58:08.499Z,1.89
2022-08-03T18:00:43.310Z,1.97
2022-08-03T18:03:10.234Z,2.04
2022-08-03T18:06:10.516Z,1.97
2022-08-03T18:08:49.805Z,2.23
2022-08-03T18:11:16.633Z,2.34
2022-08-03T18:13:43.334Z,2.05
2022-08-03T18:16:24.747Z,1.97
2022-08-03T18:18:52.582Z,1.95
2022-08-03T18:21:19.913Z,1.91
2022-08-03T18:23:53.815Z,2.23
2022-08-03T18:26:26.264Z,2.65
2022-08-03T18:28:54.926Z,2.37
2022-08-03T18:31:33.047Z,2.00
2022-08-03T18:34:17.829Z,2.07
2022-08-03T18:37:51.935Z,2.08
2022-08-03T18:39:55.859Z,2.18
2022-08-03T18:42:26.288Z,2.15
2022-08-03T18:44:56.387Z,1.94
2022-08-03T18:47:24.276Z,2.18
2022-08-03T18:49:53.009Z,2.01
2022-08-03T18:52:20.698Z,1.79
2022-08-03T18:55:02.932Z,1.94
2022-08-03T18:57:38.131Z,1.79
2022-08-03T19:00:05.116Z,2.08
2022-08-03T19:02:31.736Z,2.14
2022-08-03T19:04:59.703Z,2.01
2022-08-03T19:07:26.640Z,2.05
2022-08-03T19:10:00.595Z,2.20
2022-08-03T19:12:37.389Z,2.11
2022-08-03T19:15:10.577Z,2.09
2022-08-03T19:17:39.274Z,1.93
2022-08-03T19:20:05.995Z,1.97
2022-08-03T19:22:45.842Z,2.30
2022-08-03T19:25:13.208Z,2.27
2022-08-03T19:27:43.443Z,2.37
2022-08-03T19:30:21.817Z,2.91
2022-08-03T19:32:52.995Z,2.91
2022-08-03T19:35:51.655Z,2.69
2022-08-03T19:38:06.403Z,3.01
2022-08-03T19:40:34.969Z,2.89
2022-08-03T19:43:05.110Z,2.93
2022-08-03T19:48:19.857Z,2.83
2022-08-03T19:50:49.277Z,2.81
2022-08-03T19:53:16.272Z,2.74
2022-08-03T19:55:48.842Z,2.66
2022-08-03T19:58:17.513Z,2.75
2022-08-03T20:00:51.701Z,3.50
2022-08-03T20:03:22.043Z,3.61
2022-08-03T20:05:54.048Z,3.31
2022-08-03T20:08:23.580Z,3.25
2022-08-03T20:10:51.387Z,3.18
2022-08-03T20:13:20.637Z,3.12
2022-08-03T20:15:47.650Z,2.78
2022-08-03T20:18:20.153Z,2.77
2022-08-03T20:20:52.671Z,3.09
2022-08-03T20:23:19.677Z,2.91
2022-08-03T20:25:57.424Z,2.84
2022-08-03T20:28:27.999Z,2.91
2022-08-03T20:30:57.151Z,2.96
2022-08-03T20:33:46.562Z,2.73
2022-08-03T20:36:17.880Z,2.34
2022-08-03T20:38:47.159Z,2.46
2022-08-03T20:41:23.513Z,2.50
2022-08-03T20:43:51.064Z,2.57
2022-08-03T20:49:04.286Z,3.01
2022-08-03T20:57:06.949Z,2.11
2022-08-03T21:02:05.035Z,2.23
2022-08-03T21:04:45.190Z,2.10
2022-08-03T21:07:16.955Z,2.02
2022-08-03T21:13:08.339Z,2.93
2022-08-03T21:25:56.398Z,2.00
2022-08-03T21:28:27.464Z,2.10
2022-08-03T21:30:57.576Z,2.10
2022-08-03T21:36:36.137Z,1.97
2022-08-03T21:39:03.007Z,1.86
2022-08-03T21:41:39.038Z,2.09
2022-08-03T21:44:05.914Z,1.97
2022-08-03T21:46:38.820Z,1.88
2022-08-03T21:50:05.214Z,2.15
2022-08-03T21:51:53.592Z,2.71
2022-08-03T21:54:20.853Z,3.37
2022-08-03T21:56:47.547Z,3.05
2022-08-03T21:59:14.783Z,2.99
2022-08-03T22:01:43.376Z,2.85
2022-08-03T22:04:12.040Z,2.69
2022-08-03T22:06:57.397Z,2.82
2022-08-03T22:09:24.685Z,3.00
2022-08-03T22:11:51.370Z,3.15
2022-08-03T22:14:18.364Z,3.00
2022-08-03T22:16:45.099Z,2.81
2022-08-03T22:19:11.706Z,2.75
2022-08-03T22:21:49.967Z,2.84
2022-08-03T22:24:16.753Z,2.78
2022-08-03T22:26:46.648Z,3.02
2022-08-03T22:29:14.279Z,2.99
2022-08-03T22:31:58.698Z,3.08
2022-08-03T22:34:26.668Z,2.98
2022-08-03T22:36:53.794Z,2.65
2022-08-03T22:39:26.018Z,2.90
2022-08-03T22:41:53.703Z,2.51
2022-08-03T22:44:21.270Z,2.27
2022-08-03T22:46:48.669Z,2.35
2022-08-03T22:49:17.426Z,2.05
2022-08-03T22:51:44.979Z,2.53
2022-08-03T22:54:11.865Z,2.33
2022-08-03T22:59:40.977Z,2.41
2022-08-03T23:02:20.097Z,2.38
2022-08-03T23:04:48.918Z,2.44
2022-08-03T23:07:15.803Z,2.27
2022-08-03T23:09:44.623Z,2.25
2022-08-03T23:12:13.079Z,2.28
2022-08-03T23:14:42.967Z,2.47
2022-08-03T23:17:09.953Z,2.42
2022-08-03T23:19:39.769Z,2.36
2022-08-03T23:22:29.714Z,2.28
2022-08-03T23:24:58.924Z,2.15
2022-08-03T23:27:27.575Z,2.28
2022-08-03T23:29:54.164Z,2.32
2022-08-03T23:32:24.645Z,2.13
2022-08-03T23:34:52.195Z,2.35
2022-08-03T23:37:19.924Z,2.45
2022-08-03T23:39:46.848Z,2.41
2022-08-03T23:42:13.895Z,2.50
2022-08-03T23:44:40.803Z,2.45
2022-08-03T23:47:07.817Z,2.13
2022-08-03T23:49:34.362Z,2.16
2022-08-03T23:52:04.815Z,2.24
2022-08-03T23:54:33.937Z,2.38
2022-08-03T23:57:00.749Z,2.34
2022-08-03T23:59:27.741Z,2.32
